Map

Track Data

SID SEASON NUMBER BASIN SUBBASIN NAME ISO_TIME NATURE LAT LON WMO_WIND WMO_PRES WMO_AGENCY TRACK_TYPE DIST2LAND LANDFALL IFLAG USA_AGENCY USA_ATCF_ID USA_LAT USA_LON USA_RECORD USA_STATUS USA_WIND USA_PRES USA_SSHS USA_R34_NE USA_R34_SE USA_R34_SW USA_R34_NW USA_R50_NE USA_R50_SE USA_R50_SW USA_R50_NW USA_R64_NE USA_R64_SE USA_R64_SW USA_R64_NW USA_POCI USA_ROCI USA_RMW USA_EYE TOKYO_LAT TOKYO_LON TOKYO_GRADE TOKYO_WIND TOKYO_PRES TOKYO_R50_DIR TOKYO_R50_LONG TOKYO_R50_SHORT TOKYO_R30_DIR TOKYO_R30_LONG TOKYO_R30_SHORT TOKYO_LAND CMA_LAT CMA_LON CMA_CAT CMA_WIND CMA_PRES HKO_LAT HKO_LON HKO_CAT HKO_WIND HKO_PRES NEWDELHI_LAT NEWDELHI_LON NEWDELHI_GRADE NEWDELHI_WIND NEWDELHI_PRES NEWDELHI_CI NEWDELHI_DP NEWDELHI_POCI REUNION_LAT REUNION_LON REUNION_TYPE REUNION_WIND REUNION_PRES REUNION_TNUM REUNION_CI REUNION_RMW REUNION_R34_NE REUNION_R34_SE REUNION_R34_SW REUNION_R34_NW REUNION_R50_NE REUNION_R50_SE REUNION_R50_SW REUNION_R50_NW REUNION_R64_NE REUNION_R64_SE REUNION_R64_SW REUNION_R64_NW BOM_LAT BOM_LON BOM_TYPE BOM_WIND BOM_PRES BOM_TNUM BOM_CI BOM_RMW BOM_R34_NE BOM_R34_SE BOM_R34_SW BOM_R34_NW BOM_R50_NE BOM_R50_SE BOM_R50_SW BOM_R50_NW BOM_R64_NE BOM_R64_SE BOM_R64_SW BOM_R64_NW BOM_ROCI BOM_POCI BOM_EYE BOM_POS_METHOD BOM_PRES_METHOD NADI_LAT NADI_LON NADI_CAT NADI_WIND NADI_PRES WELLINGTON_LAT WELLINGTON_LON WELLINGTON_WIND WELLINGTON_PRES DS824_LAT DS824_LON DS824_STAGE DS824_WIND DS824_PRES TD9636_LAT TD9636_LON TD9636_STAGE TD9636_WIND TD9636_PRES TD9635_LAT TD9635_LON TD9635_WIND TD9635_PRES TD9635_ROCI NEUMANN_LAT NEUMANN_LON NEUMANN_CLASS NEUMANN_WIND NEUMANN_PRES MLC_LAT MLC_LON MLC_CLASS MLC_WIND MLC_PRES USA_GUST BOM_GUST BOM_GUST_PER REUNION_GUST REUNION_GUST_PER USA_SEAHGT USA_SEARAD_NE USA_SEARAD_SE USA_SEARAD_SW USA_SEARAD_NW STORM_SPEED STORM_DIR
1901264N14287 1901 32 NA CS NOT_NAMED 1901-09-21 00:00:00 TS 13.7000 -73.0000 35 hurdat_atl main 189 189 O_____________ hurdat_atl AL101901 13.7000 -73.0000 TS 35 0 10 275
1901264N14287 1901 32 NA CS NOT_NAMED 1901-09-21 03:00:00 TS 13.7402 -73.4975 main 219 219 P_____________ AL101901 13.7402 -73.4975 TS 35 0 10 276
1901264N14287 1901 32 NA CS NOT_NAMED 1901-09-21 06:00:00 TS 13.8000 -74.0000 35 hurdat_atl main 264 264 O_____________ hurdat_atl AL101901 13.8000 -74.0000 TS 35 0 10 279
1901264N14287 1901 32 NA CS NOT_NAMED 1901-09-21 09:00:00 TS 13.8924 -74.5075 main 304 304 P_____________ AL101901 13.8924 -74.5075 TS 35 0 10 282
1901264N14287 1901 32 NA CS NOT_NAMED 1901-09-21 12:00:00 TS 14.0000 -75.0000 35 hurdat_atl main 325 325 O_____________ hurdat_atl AL101901 14.0000 -75.0000 TS 35 0 9 283
1901264N14287 1901 32 NA CS NOT_NAMED 1901-09-21 15:00:00 TS 14.0998 -75.4501 main 353 353 P_____________ AL101901 14.0998 -75.4501 TS 35 0 9 283
1901264N14287 1901 32 NA CS NOT_NAMED 1901-09-21 18:00:00 TS 14.2000 -75.9000 35 hurdat_atl main 374 374 O_____________ hurdat_atl AL101901 14.2000 -75.9000 TS 35 0 9 282
1901264N14287 1901 32 NA CS NOT_NAMED 1901-09-21 21:00:00 TS 14.2924 -76.3851 main 390 370 P_____________ AL101901 14.2924 -76.3851 TS 35 0 10 282
1901264N14287 1901 32 NA CS NOT_NAMED 1901-09-22 00:00:00 TS 14.4000 -76.9000 35 hurdat_atl main 370 358 O_____________ hurdat_atl AL101901 14.4000 -76.9000 TS 35 0 11 284
1901264N14287 1901 32 NA CS NOT_NAMED 1901-09-22 03:00:00 TS 14.5425 -77.4500 main 358 341 P_____________ AL101901 14.5425 -77.4500 TS 35 0 11 286
1901264N14287 1901 32 NA CS NOT_NAMED 1901-09-22 06:00:00 TS 14.7000 -78.0000 35 hurdat_atl main 346 341 O_____________ hurdat_atl AL101901 14.7000 -78.0000 TS 35 0 11 287
1901264N14287 1901 32 NA CS NOT_NAMED 1901-09-22 09:00:00 TS 14.8574 -78.5225 main 342 342 P_____________ AL101901 14.8574 -78.5225 TS 35 0 10 287
1901264N14287 1901 32 NA CS NOT_NAMED 1901-09-22 12:00:00 TS 15.0000 -79.0000 35 hurdat_atl main 352 351 O_____________ hurdat_atl AL101901 15.0000 -79.0000 TS 35 0 9 286
1901264N14287 1901 32 NA CS NOT_NAMED 1901-09-22 15:00:00 TS 15.0998 -79.4151 main 362 355 P_____________ AL101901 15.0998 -79.4151 TS 35 0 8 285
1901264N14287 1901 32 NA CS NOT_NAMED 1901-09-22 18:00:00 TS 15.2000 -79.8000 35 hurdat_atl main 355 313 O_____________ hurdat_atl AL101901 15.2000 -79.8000 TS 35 0 8 287
1901264N14287 1901 32 NA CS NOT_NAMED 1901-09-22 21:00:00 TS 15.3350 -80.2075 main 313 274 P_____________ AL101901 15.3350 -80.2075 TS 35 0 8 291
1901264N14287 1901 32 NA CS NOT_NAMED 1901-09-23 00:00:00 TS 15.5000 -80.6000 35 hurdat_atl main 274 245 O_____________ hurdat_atl AL101901 15.5000 -80.6000 TS 35 0 8 295
1901264N14287 1901 32 NA CS NOT_NAMED 1901-09-23 03:00:00 TS 15.6774 -80.9576 main 238 217 P_____________ AL101901 15.6774 -80.9576 TS 35 0 8 301
1901264N14287 1901 32 NA CS NOT_NAMED 1901-09-23 06:00:00 TS 15.9000 -81.3000 35 hurdat_atl main 217 201 O_____________ hurdat_atl AL101901 15.9000 -81.3000 TS 35 0 9 307
1901264N14287 1901 32 NA CS NOT_NAMED 1901-09-23 09:00:00 TS 16.2001 -81.6798 main 201 201 P_____________ AL101901 16.2001 -81.6798 TS 35 0 9 312
1901264N14287 1901 32 NA CS NOT_NAMED 1901-09-23 12:00:00 TS 16.5000 -82.0000 35 hurdat_atl main 201 201 O_____________ hurdat_atl AL101901 16.5000 -82.0000 TS 35 0 7 316
1901264N14287 1901 32 NA CS NOT_NAMED 1901-09-23 15:00:00 TS 16.7074 -82.1877 main 202 202 P_____________ AL101901 16.7074 -82.1877 TS 35 0 5 324
1901264N14287 1901 32 NA CS NOT_NAMED 1901-09-23 18:00:00 TS 16.9000 -82.3000 35 hurdat_atl main 214 214 O_____________ hurdat_atl AL101901 16.9000 -82.3000 TS 35 0 5 335
1901264N14287 1901 32 NA CS NOT_NAMED 1901-09-23 21:00:00 TS 17.1350 -82.4001 main 228 228 P_____________ AL101901 17.1350 -82.4001 TS 35 0 5 339
1901264N14287 1901 32 NA CS NOT_NAMED 1901-09-24 00:00:00 TS 17.4000 -82.5000 35 hurdat_atl main 253 253 O_____________ hurdat_atl AL101901 17.4000 -82.5000 TS 35 0 6 337
1901264N14287 1901 32 NA CS NOT_NAMED 1901-09-24 03:00:00 TS 17.7000 -82.6499 main 278 272 P_____________ AL101901 17.7000 -82.6499 TS 35 0 7 335
1901264N14287 1901 32 NA CS NOT_NAMED 1901-09-24 06:00:00 TS 18.0000 -82.8000 35 hurdat_atl main 293 293 O_____________ hurdat_atl AL101901 18.0000 -82.8000 TS 35 0 6 337
1901264N14287 1901 32 NA CS NOT_NAMED 1901-09-24 09:00:00 TS 18.2725 -82.9076 main 316 316 P_____________ AL101901 18.2725 -82.9076 TS 35 0 5 339
1901264N14287 1901 32 NA CS NOT_NAMED 1901-09-24 12:00:00 TS 18.5000 -83.0000 35 hurdat_atl main 325 313 O_____________ hurdat_atl AL101901 18.5000 -83.0000 TS 35 0 4 334
1901264N14287 1901 32 NA CS NOT_NAMED 1901-09-24 15:00:00 TS 18.6575 -83.1075 main 303 293 P_____________ AL101901 18.6575 -83.1075 TS 35 0 4 328
1901264N14287 1901 32 NA CS NOT_NAMED 1901-09-24 18:00:00 TS 18.8000 -83.2000 35 hurdat_atl main 293 271 O_____________ hurdat_atl AL101901 18.8000 -83.2000 TS 35 0 4 337
1901264N14287 1901 32 NA CS NOT_NAMED 1901-09-24 21:00:00 TS 18.9925 -83.2575 main 273 251 P_____________ AL101901 18.9925 -83.2575 TS 35 0 4 347
1901264N14287 1901 32 NA CS NOT_NAMED 1901-09-25 00:00:00 TS 19.2000 -83.3000 35 hurdat_atl main 251 229 O_____________ hurdat_atl AL101901 19.2000 -83.3000 TS 35 0 4 348
1901264N14287 1901 32 NA CS NOT_NAMED 1901-09-25 03:00:00 TS 19.4000 -83.3500 main 232 210 P_____________ AL101901 19.4000 -83.3500 TS 35 0 4 347
1901264N14287 1901 32 NA CS NOT_NAMED 1901-09-25 06:00:00 TS 19.6000 -83.4000 35 hurdat_atl main 210 189 O_____________ hurdat_atl AL101901 19.6000 -83.4000 TS 35 0 4 348
1901264N14287 1901 32 NA CS NOT_NAMED 1901-09-25 09:00:00 TS 19.8075 -83.4425 main 189 172 P_____________ AL101901 19.8075 -83.4425 TS 37 0 4 347
1901264N14287 1901 32 NA CS NOT_NAMED 1901-09-25 12:00:00 TS 20.0000 -83.5000 40 hurdat_atl main 172 162 O_____________ hurdat_atl AL101901 20.0000 -83.5000 TS 40 0 4 337
1901264N14287 1901 32 NA CS NOT_NAMED 1901-09-25 15:00:00 TS 20.1500 -83.6000 main 157 152 P_____________ AL101901 20.1500 -83.6000 TS 40 0 4 328
1901264N14287 1901 32 NA CS NOT_NAMED 1901-09-25 18:00:00 TS 20.3000 -83.7000 40 hurdat_atl main 152 133 O_____________ hurdat_atl AL101901 20.3000 -83.7000 TS 40 0 4 337
1901264N14287 1901 32 NA CS NOT_NAMED 1901-09-25 21:00:00 TS 20.4925 -83.7575 main 139 122 P_____________ AL101901 20.4925 -83.7575 TS 40 0 4 347
1901264N14287 1901 32 NA CS NOT_NAMED 1901-09-26 00:00:00 TS 20.7000 -83.8000 40 hurdat_atl main 122 106 O_____________ hurdat_atl AL101901 20.7000 -83.8000 TS 40 0 4 348
1901264N14287 1901 32 NA CS NOT_NAMED 1901-09-26 03:00:00 TS 20.9000 -83.8500 main 112 90 P_____________ AL101901 20.9000 -83.8500 TS 42 0 4 347
1901264N14287 1901 32 NA CS NOT_NAMED 1901-09-26 06:00:00 TS 21.1000 -83.9000 45 hurdat_atl main 90 67 O_____________ hurdat_atl AL101901 21.1000 -83.9000 TS 45 0 4 347
1901264N14287 1901 32 NA CS NOT_NAMED 1901-09-26 09:00:00 TS 21.2850 -83.9426 main 67 44 P_____________ AL101901 21.2850 -83.9426 TS 45 0 4 347
1901264N14287 1901 32 NA CS NOT_NAMED 1901-09-26 12:00:00 TS 21.5000 -84.0000 45 hurdat_atl main 44 22 O_____________ hurdat_atl AL101901 21.5000 -84.0000 TS 45 0 5 344
1901264N14287 1901 32 NA CS NOT_NAMED 1901-09-26 15:00:00 TS 21.7475 -84.0851 main 22 0 P_____________ AL101901 21.7475 -84.0851 TS 45 0 6 343
1901264N14287 1901 32 NA NA NOT_NAMED 1901-09-26 18:00:00 TS 22.1000 -84.2000 45 hurdat_atl main 0 0 O_____________ hurdat_atl AL101901 22.1000 -84.2000 TS 45 0 9 345
1901264N14287 1901 32 NA GM NOT_NAMED 1901-09-26 21:00:00 TS 22.6125 -84.3424 main 15 15 P_____________ AL101901 22.6125 -84.3424 TS 42 0 11 346
1901264N14287 1901 32 NA GM NOT_NAMED 1901-09-27 00:00:00 TS 23.2000 -84.5000 40 hurdat_atl main 75 75 O_____________ hurdat_atl AL101901 23.2000 -84.5000 TS 40 0 12 346
1901264N14287 1901 32 NA GM NOT_NAMED 1901-09-27 03:00:00 TS 23.7425 -84.6576 main 132 132 P_____________ AL101901 23.7425 -84.6576 TS 40 0 11 346
1901264N14287 1901 32 NA GM NOT_NAMED 1901-09-27 06:00:00 TS 24.3000 -84.8000 40 hurdat_atl main 196 196 O_____________ hurdat_atl AL101901 24.3000 -84.8000 TS 40 0 12 348
1901264N14287 1901 32 NA GM NOT_NAMED 1901-09-27 09:00:00 TS 24.8700 -84.9298 main 262 262 P_____________ AL101901 24.8700 -84.9298 TS 40 0 12 351
1901264N14287 1901 32 NA GM NOT_NAMED 1901-09-27 12:00:00 TS 25.5000 -85.0000 40 hurdat_atl main 305 267 O_____________ hurdat_atl AL101901 25.5000 -85.0000 TS 40 0 13 358
1901264N14287 1901 32 NA GM NOT_NAMED 1901-09-27 15:00:00 TS 26.2050 -84.9801 main 267 221 P_____________ AL101901 26.2050 -84.9801 TS 40 0 15 3
1901264N14287 1901 32 NA GM NOT_NAMED 1901-09-27 18:00:00 TS 27.0000 -84.9000 40 hurdat_atl main 221 186 O_____________ hurdat_atl AL101901 27.0000 -84.9000 TS 40 0 16 5
1901264N14287 1901 32 NA GM NOT_NAMED 1901-09-27 21:00:00 TS 27.8387 -84.8068 main 186 113 P_____________ AL101901 27.8387 -84.8068 TS 40 0 18 6
1901264N14287 1901 32 NA GM NOT_NAMED 1901-09-28 00:00:00 TS 28.8000 -84.7000 40 hurdat_atl main 102 9 O_____________ hurdat_atl AL101901 28.8000 -84.7000 TS 40 0 21 5
1901264N14287 1901 32 NA GM NOT_NAMED 1901-09-28 03:00:00 TS 29.9000 -84.6000 40 hurdat_atl main 0 0 O_____________ hurdat_atl AL101901 29.9000 -84.6000 L TS 40 0 18 6
1901264N14287 1901 32 NA NA NOT_NAMED 1901-09-28 06:00:00 TS 30.6000 -84.5000 35 hurdat_atl main 0 0 O_____________ hurdat_atl AL101901 30.6000 -84.5000 TS 35 0 16 8
1901264N14287 1901 32 NA NA NOT_NAMED 1901-09-28 09:00:00 TS 31.4508 -84.3329 main 0 0 P_____________ AL101901 31.4508 -84.3329 TS 35 0 20 13
1901264N14287 1901 32 NA NA NOT_NAMED 1901-09-28 12:00:00 ET 32.5000 -84.0000 35 hurdat_atl main 0 0 O_____________ hurdat_atl AL101901 32.5000 -84.0000 EX 35 -4 24 19
1901264N14287 1901 32 NA NA NOT_NAMED 1901-09-28 15:00:00 ET 33.7406 -83.4110 main 0 0 P_____________ AL101901 33.7406 -83.4110 EX 35 -4 28 23
1901264N14287 1901 32 NA NA NOT_NAMED 1901-09-28 18:00:00 ET 35.1000 -82.7000 35 hurdat_atl main 0 0 O_____________ hurdat_atl AL101901 35.1000 -82.7000 EX 35 -4 29 22
1901264N14287 1901 32 NA NA NOT_NAMED 1901-09-28 21:00:00 ET 36.4571 -82.0483 main 0 0 P_____________ AL101901 36.4571 -82.0483 EX 32 -4 29 21
1901264N14287 1901 32 NA NA NOT_NAMED 1901-09-29 00:00:00 ET 37.8000 -81.4000 30 hurdat_atl main 0 0 O_____________ hurdat_atl AL101901 37.8000 -81.4000 EX 30 -4 28 21
1901264N14287 1901 32 NA NA NOT_NAMED 1901-09-29 03:00:00 ET 39.0868 -80.7623 main 0 0 P_____________ AL101901 39.0868 -80.7623 EX 27 -4 27 22
1901264N14287 1901 32 NA NA NOT_NAMED 1901-09-29 06:00:00 ET 40.3000 -80.1000 25 hurdat_atl main 0 0 O_____________ hurdat_atl AL101901 40.3000 -80.1000 EX 25 -4 26 24
1901264N14287 1901 32 NA NA NOT_NAMED 1901-09-29 09:00:00 ET 41.4587 -79.4069 main 0 0 P_____________ AL101901 41.4587 -79.4069 EX 25 -4 25 27
1901264N14287 1901 32 NA NA NOT_NAMED 1901-09-29 12:00:00 ET 42.5000 -78.6000 25 hurdat_atl main 0 0 O_____________ hurdat_atl AL101901 42.5000 -78.6000 EX 25 -4 24 35
1901264N14287 1901 32 NA NA NOT_NAMED 1901-09-29 15:00:00 ET 43.4028 -77.5860 main 0 0 P_____________ AL101901 43.4028 -77.5860 EX 25 -4 23 42
1901264N14287 1901 32 NA NA NOT_NAMED 1901-09-29 18:00:00 ET 44.2000 -76.5000 25 hurdat_atl main 0 0 O_____________ hurdat_atl AL101901 44.2000 -76.5000 EX 25 -4 22 44
1901264N14287 1901 32 NA NA NOT_NAMED 1901-09-29 21:00:00 ET 44.9789 -75.4897 main 0 0 P_____________ AL101901 44.9789 -75.4897 EX 25 -4 21 43
1901264N14287 1901 32 NA NA NOT_NAMED 1901-09-30 00:00:00 ET 45.7000 -74.5000 25 hurdat_atl main 0 0 O_____________ hurdat_atl AL101901 45.7000 -74.5000 EX 25 -4 19 43
1901264N14287 1901 32 NA NA NOT_NAMED 1901-09-30 03:00:00 ET 46.3814 -73.6432 main 0 0 P_____________ AL101901 46.3814 -73.6432 EX 25 -4 19 47
1901264N14287 1901 32 NA NA NOT_NAMED 1901-09-30 06:00:00 ET 47.0000 -72.5000 25 hurdat_atl main 0 0 O_____________ hurdat_atl AL101901 47.0000 -72.5000 EX 25 -4 23 59
1901264N14287 1901 32 NA NA NOT_NAMED 1901-09-30 09:00:00 ET 47.5829 -70.6996 main 0 0 P_____________ AL101901 47.5829 -70.6996 EX 25 -4 29 70
1901264N14287 1901 32 NA NA NOT_NAMED 1901-09-30 12:00:00 ET 48.0000 -68.5000 25 hurdat_atl main 0 0 O_____________ hurdat_atl AL101901 48.0000 -68.5000 EX 25 -4 31 79
1901264N14287 1901 32 NA NA NOT_NAMED 1901-09-30 15:00:00 ET 48.1761 -66.1793 main 0 0 P_____________ AL101901 48.1761 -66.1793 EX 27 -4 31 86
1901264N14287 1901 32 NA NA NOT_NAMED 1901-09-30 18:00:00 ET 48.2000 -63.9000 30 hurdat_atl main 36 36 O_____________ hurdat_atl AL101901 48.2000 -63.9000 EX 30 -4 28 90
1901264N14287 1901 32 NA NA NOT_NAMED 1901-09-30 21:00:00 ET 48.1997 -61.9674 main 99 67 P_____________ AL101901 48.1997 -61.9674 EX 30 -4 25 90
1901264N14287 1901 32 NA NA NOT_NAMED 1901-10-01 00:00:00 ET 48.2000 -60.1000 30 hurdat_atl main 61 0 O_____________ hurdat_atl AL101901 48.2000 -60.1000 EX 30 -4 26 89
1901264N14287 1901 32 NA NA NOT_NAMED 1901-10-01 03:00:00 ET 48.2320 -58.0443 main 0 0 P_____________ AL101901 48.2320 -58.0443 EX 32 -4 28 88
1901264N14287 1901 32 NA NA NOT_NAMED 1901-10-01 06:00:00 ET 48.3000 -55.9000 35 hurdat_atl main 0 0 O_____________ hurdat_atl AL101901 48.3000 -55.9000 EX 35 -4 28 87
1901264N14287 1901 32 NA NA NOT_NAMED 1901-10-01 09:00:00 ET 48.3622 -53.7856 main 0 0 P_____________ AL101901 48.3622 -53.7856 EX 35 -4 29 86
1901264N14287 1901 32 NA NA NOT_NAMED 1901-10-01 12:00:00 ET 48.5000 -51.5000 35 hurdat_atl main 105 105 O_____________ hurdat_atl AL101901 48.5000 -51.5000 EX 35 -4 32 85
1901264N14287 1901 32 NA NA NOT_NAMED 1901-10-01 15:00:00 ET 48.6223 -48.9520 main 284 284 P_____________ AL101901 48.6223 -48.9520 EX 37 -4 36 82
1901264N14287 1901 32 NA NA NOT_NAMED 1901-10-01 18:00:00 ET 49.0000 -46.1000 40 hurdat_atl main 500 500 O_____________ hurdat_atl AL101901 49.0000 -46.1000 EX 40 -4 41 74
1901264N14287 1901 32 NA NA NOT_NAMED 1901-10-01 21:00:00 ET 49.7643 -42.8549 main 743 743 P_____________ AL101901 49.7643 -42.8549 EX 40 -4 47 67
1901264N14287 1901 32 NA NA NOT_NAMED 1901-10-02 00:00:00 ET 50.8000 -39.4000 40 hurdat_atl main 1005 1004 O_____________ hurdat_atl AL101901 50.8000 -39.4000 EX 40 -4 49 64
1901264N14287 1901 32 NA NA NOT_NAMED 1901-10-02 03:00:00 ET 51.9182 -35.9190 main 1010 996 P_____________ AL101901 51.9182 -35.9190 EX 42 -4 48 61
1901264N14287 1901 32 NA NA NOT_NAMED 1901-10-02 06:00:00 ET 53.1000 -32.6000 45 hurdat_atl main 1002 1000 O_____________ hurdat_atl AL101901 53.1000 -32.6000 EX 45 -4 44 58
1901264N14287 1901 32 NA NA NOT_NAMED 1901-10-02 09:00:00 ET 54.2281 -29.6955 main 1032 984 P_____________ AL101901 54.2281 -29.6955 EX 45 -4 39 56
1901264N14287 1901 32 NA NA NOT_NAMED 1901-10-02 12:00:00 ET 55.3000 -27.0000 45 hurdat_atl main 970 O_____________ hurdat_atl AL101901 55.3000 -27.0000 EX 45 -4 37 55

About IBTrACS Database

This database is a web-friendly format of International Best Track Archive for Climate Stewardship (IBTrACS), a global best track data archive curated by NOAA dating back to 1842.

Updated: 2021-10-08